Time;durP1;ratioP1;P1;durP2;ratioP2;P2;SDS_P1;SDS_P2;PMS_P1;PMS_P2;Temp;Humidity;BMP_temperature;BMP_pressure;BME280_temperature;BME280_humidity;BME280_pressure;Samples;Min_cycle;Max_cycle;Signal;HPM_P1;HPM_P2
2023/03/30 00:01:24;;;;;;;5.90;3.58;;;;;;;16.51;38.08;100719.81;5095602;28;20054;-67
2023/03/30 00:03:53;;;;;;;5.90;3.30;;;;;;;16.49;38.18;100716.34;5095571;28;20048;-67
2023/03/30 00:06:25;;;;;;;5.63;2.95;;;;;;;16.47;38.14;100710.25;5095467;28;20097;-67
2023/03/30 00:08:56;;;;;;;5.38;2.72;;;;;;;16.48;38.03;100717.34;5095425;28;20069;-66
2023/03/30 00:11:26;;;;;;;6.55;3.00;;;;;;;16.45;38.23;100711.34;5093959;28;20044;-66
2023/03/30 00:13:55;;;;;;;5.90;3.03;;;;;;;16.44;38.43;100715.88;5095540;28;20495;-66
2023/03/30 00:16:23;;;;;;;5.13;3.30;;;;;;;16.41;38.18;100705.34;5095395;28;20040;-67
2023/03/30 00:18:51;;;;;;;6.28;3.00;;;;;;;16.42;38.22;100712.44;5095408;28;20062;-67
2023/03/30 00:21:20;;;;;;;5.60;3.13;;;;;;;16.40;38.30;100709.00;5095171;28;20067;-66
2023/03/30 00:23:51;;;;;;;6.15;3.15;;;;;;;16.38;38.41;100708.25;5095141;28;20062;-67
2023/03/30 00:26:20;;;;;;;6.00;3.08;;;;;;;16.38;38.59;100702.88;5095052;28;20079;-66
2023/03/30 00:28:48;;;;;;;5.45;3.40;;;;;;;16.36;38.50;100707.53;5095119;28;20040;-67
2023/03/30 00:31:16;;;;;;;4.97;2.50;;;;;;;16.31;38.07;100699.81;5094950;28;20054;-67
2023/03/30 00:33:44;;;;;;;6.03;3.10;;;;;;;16.34;38.56;100704.09;5095044;28;20094;-67
2023/03/30 00:36:15;;;;;;;5.82;3.03;;;;;;;16.32;38.56;100700.66;5095048;28;21126;-67
2023/03/30 00:38:47;;;;;;;5.78;3.20;;;;;;;16.31;38.76;100699.81;5094764;28;20496;-67
2023/03/30 00:41:16;;;;;;;6.05;2.95;;;;;;;16.29;38.61;100696.34;5094904;28;20044;-67
2023/03/30 00:43:55;;;;;;;6.57;3.55;;;;;;;16.29;38.69;100690.13;5094903;28;20407;-67
2023/03/30 00:46:24;;;;;;;5.72;3.00;;;;;;;16.27;38.87;100684.00;5094561;28;20048;-66
2023/03/30 00:48:56;;;;;;;5.43;2.72;;;;;;;16.25;38.65;100677.88;5094754;28;20050;-67
2023/03/30 00:51:27;;;;;;;5.70;3.20;;;;;;;16.23;38.32;100674.47;5094671;28;20443;-67
2023/03/30 00:54:02;;;;;;;5.68;3.00;;;;;;;16.21;38.56;100676.38;5094644;28;20047;-67
2023/03/30 00:56:33;;;;;;;4.55;2.60;;;;;;;16.21;38.61;100677.28;5094490;28;20443;-67
2023/03/30 00:59:02;;;;;;;5.18;3.08;;;;;;;16.19;38.27;100673.81;5094539;28;20481;-68
2023/03/30 01:01:37;;;;;;;6.07;3.30;;;;;;;16.18;38.61;100665.88;5094531;28;20473;-67
2023/03/30 01:04:08;;;;;;;4.88;3.10;;;;;;;16.17;38.35;100662.31;5093325;28;20040;-67
2023/03/30 01:06:38;;;;;;;5.68;2.97;;;;;;;16.16;38.42;100666.00;5073631;28;20147;-66
2023/03/30 01:09:08;;;;;;;5.28;3.00;;;;;;;16.15;38.60;100660.72;5074019;28;20481;-67
2023/03/30 01:11:38;;;;;;;5.22;2.97;;;;;;;16.14;38.79;100661.72;5090228;28;20055;-67
2023/03/30 01:14:10;;;;;;;6.38;2.75;;;;;;;16.12;38.88;100660.97;5094300;28;20056;-67
2023/03/30 01:16:44;;;;;;;4.63;2.85;;;;;;;16.11;38.57;100648.47;5089969;28;20109;-66
2023/03/30 01:19:47;;;;;;;5.38;3.15;;;;;;;16.10;38.78;100647.63;5094286;28;20063;-66
2023/03/30 01:22:44;;;;;;;5.20;2.67;;;;;;;16.08;38.62;100635.25;5094176;28;20072;-67
2023/03/30 01:25:39;;;;;;;4.22;2.63;;;;;;;16.06;38.57;100634.53;5077785;28;20048;-67
2023/03/30 01:28:25;;;;;;;5.80;3.05;;;;;;;16.06;38.68;100638.06;5093722;28;20048;-68
2023/03/30 01:31:24;;;;;;;5.97;3.08;;;;;;;16.05;38.80;100632.81;5093833;28;20051;-68
2023/03/30 01:34:33;;;;;;;6.38;3.08;;;;;;;16.03;39.07;100635.63;5093777;28;20050;-68
2023/03/30 01:37:31;;;;;;;5.63;2.70;;;;;;;16.01;39.01;100622.28;5093745;28;20048;-68
2023/03/30 01:40:08;;;;;;;4.88;2.65;;;;;;;15.99;38.81;100624.22;5093666;28;20052;-68
2023/03/30 01:42:42;;;;;;;5.32;2.80;;;;;;;15.97;38.83;100620.81;5089293;28;20102;-68
2023/03/30 01:45:19;;;;;;;5.20;3.00;;;;;;;15.92;38.96;100612.25;5073485;28;20044;-68
2023/03/30 01:47:53;;;;;;;5.25;2.75;;;;;;;15.94;38.90;100621.06;5073476;28;20048;-68
2023/03/30 01:50:26;;;;;;;5.40;2.90;;;;;;;15.94;38.61;100620.19;5073229;28;20048;-67
2023/03/30 01:52:57;;;;;;;;;;;;;;;15.94;38.83;100622.88;5073725;28;20068;-69
2023/03/30 01:55:33;;;;;;;4.40;2.40;;;;;;;15.91;38.89;100621.25;5073086;28;19928;-68
2023/03/30 01:58:06;;;;;;;6.97;3.30;;;;;;;15.91;38.95;100620.41;5073394;28;20067;-68
2023/03/30 02:00:36;;;;;;;7.03;3.28;;;;;;;15.90;39.00;100616.00;5073226;28;20049;-68
2023/03/30 02:03:09;;;;;;;4.97;2.78;;;;;;;15.87;38.93;100613.56;5073094;28;20044;-68
2023/03/30 02:05:39;;;;;;;5.28;2.65;;;;;;;15.86;38.96;100618.09;5072957;28;20052;-67
2023/03/30 02:08:12;;;;;;;5.75;2.90;;;;;;;15.86;39.00;100639.59;5072931;28;20402;-66
2023/03/30 02:10:45;;;;;;;5.35;2.63;;;;;;;15.83;39.34;100620.16;5072964;28;20051;-66
2023/03/30 02:13:15;;;;;;;6.15;3.10;;;;;;;15.84;39.27;100625.41;5072867;28;20074;-67
2023/03/30 02:15:48;;;;;;;5.75;2.60;;;;;;;15.84;39.15;100613.81;5072739;28;20052;-68
2023/03/30 02:18:18;;;;;;;4.80;2.35;;;;;;;15.80;39.03;100607.78;5072108;28;20563;-68
2023/03/30 02:20:46;;;;;;;5.50;2.50;;;;;;;15.81;39.35;100614.88;5072637;28;20072;-66
2023/03/30 02:23:17;;;;;;;5.07;2.70;;;;;;;15.81;39.26;100605.94;5072782;28;20127;-67
2023/03/30 02:25:47;;;;;;;4.45;2.50;;;;;;;15.78;39.33;100590.06;5072474;28;20044;-67
2023/03/30 02:28:17;;;;;;;6.05;2.97;;;;;;;15.77;39.15;100596.41;5072574;28;20078;-67
2023/03/30 02:30:47;;;;;;;5.22;2.75;;;;;;;15.72;39.11;100588.69;5075450;28;20098;-66
2023/03/30 02:33:27;;;;;;;5.20;2.83;;;;;;;15.74;39.02;100598.38;5092629;28;20403;-66
2023/03/30 02:36:10;;;;;;;4.97;2.63;;;;;;;15.74;39.49;100603.75;5092789;28;20050;-67
2023/03/30 02:38:53;;;;;;;5.97;3.00;;;;;;;15.73;39.33;100611.94;5092495;28;20090;-68
2023/03/30 02:41:40;;;;;;;6.18;3.10;;;;;;;15.71;39.27;100605.78;5092526;28;20117;-67
2023/03/30 02:44:20;;;;;;;5.28;2.92;;;;;;;15.70;39.22;100612.16;5092635;28;20055;-67
2023/03/30 02:46:59;;;;;;;5.18;2.80;;;;;;;15.68;39.43;100609.56;5092455;28;20123;-67
2023/03/30 02:49:40;;;;;;;5.85;2.60;;;;;;;15.69;39.22;100618.50;5092345;28;20047;-67
2023/03/30 02:52:17;;;;;;;4.93;3.00;;;;;;;15.66;39.09;100613.38;5092611;28;20048;-67
2023/03/30 02:54:50;;;;;;;5.57;2.78;;;;;;;15.66;39.53;100611.53;5092495;28;20438;-67
2023/03/30 02:57:29;;;;;;;5.82;2.85;;;;;;;15.64;39.41;100596.50;5092308;28;20119;-67
2023/03/30 03:00:06;;;;;;;4.72;2.75;;;;;;;15.62;39.28;100601.09;5092492;28;20048;-67
2023/03/30 03:02:38;;;;;;;5.32;2.97;;;;;;;15.61;39.14;100611.00;5092491;28;20040;-67
2023/03/30 03:05:08;;;;;;;4.97;2.78;;;;;;;15.61;39.58;100631.66;5092340;28;20465;-67
2023/03/30 03:07:37;;;;;;;7.75;3.20;;;;;;;15.60;39.54;100620.06;5092139;28;20123;-67
2023/03/30 03:10:06;;;;;;;5.45;2.83;;;;;;;15.60;39.38;100613.78;5092218;28;20097;-67
2023/03/30 03:12:36;;;;;;;5.72;2.97;;;;;;;15.59;39.41;100614.75;5092101;28;20128;-67
2023/03/30 03:15:05;;;;;;;6.30;2.90;;;;;;;15.57;39.27;100609.50;5091866;28;20067;-66
2023/03/30 03:17:34;;;;;;;5.95;2.97;;;;;;;15.56;39.30;100598.88;5092263;28;20178;-67
2023/03/30 03:20:04;;;;;;;5.30;2.70;;;;;;;15.54;39.15;100606.16;5092173;28;20067;-68
2023/03/30 03:22:32;;;;;;;6.38;2.75;;;;;;;15.55;39.39;100618.66;5092093;28;20044;-68
2023/03/30 03:25:01;;;;;;;8.90;3.53;;;;;;;15.53;39.48;100626.81;5091935;28;20097;-67
2023/03/30 03:27:29;;;;;;;8.32;3.40;;;;;;;15.53;39.26;100609.84;5091940;28;20637;-67
2023/03/30 03:29:59;;;;;;;4.90;2.58;;;;;;;15.51;39.34;100611.78;5092012;28;20443;-67
2023/03/30 03:32:27;;;;;;;5.88;3.10;;;;;;;15.50;39.46;100613.63;5091740;28;20484;-67
2023/03/30 03:34:55;;;;;;;7.60;3.03;;;;;;;15.50;39.50;100615.44;5091821;28;20126;-67
2023/03/30 03:37:23;;;;;;;6.35;2.90;;;;;;;15.47;39.58;100629.97;5091764;28;20110;-66
2023/03/30 03:39:52;;;;;;;5.57;3.10;;;;;;;15.47;39.60;100621.91;5091610;28;20058;-67
2023/03/30 03:42:20;;;;;;;5.18;3.00;;;;;;;15.44;39.81;100625.69;5091688;28;20102;-67
2023/03/30 03:44:48;;;;;;;6.50;2.80;;;;;;;15.44;39.73;100623.00;5091862;28;20052;-66
2023/03/30 03:47:17;;;;;;;5.93;2.90;;;;;;;15.43;39.63;100621.28;5091554;28;20562;-66
2023/03/30 03:49:45;;;;;;;4.80;2.60;;;;;;;15.42;39.65;100614.19;5091767;28;20404;-66
2023/03/30 03:52:14;;;;;;;5.60;3.00;;;;;;;15.41;39.46;100612.47;5091609;28;20124;-68
2023/03/30 03:54:42;;;;;;;4.55;2.70;;;;;;;15.41;39.51;100617.00;5091497;28;20044;-66
2023/03/30 03:57:10;;;;;;;5.97;3.22;;;;;;;15.41;39.53;100612.47;5079186;28;20052;-67
2023/03/30 03:59:38;;;;;;;4.55;2.90;;;;;;;15.39;39.50;100611.72;5071303;28;20053;-68
2023/03/30 04:02:06;;;;;;;5.82;3.13;;;;;;;15.39;39.46;100609.03;5071345;28;20049;-68
2023/03/30 04:04:39;;;;;;;5.15;2.70;;;;;;;15.37;39.69;100604.75;5071232;28;20041;-66
2023/03/30 04:07:08;;;;;;;5.70;3.10;;;;;;;15.37;39.71;100611.00;5071134;28;20097;-66
2023/03/30 04:09:36;;;;;;;6.78;3.03;;;;;;;15.35;39.66;100604.88;5071143;28;20450;-67
2023/03/30 04:12:07;;;;;;;5.72;2.67;;;;;;;15.35;39.60;100591.44;5071293;28;20044;-67
2023/03/30 04:14:35;;;;;;;5.30;2.80;;;;;;;15.33;39.69;100590.69;5071620;28;20059;-67
2023/03/30 04:17:05;;;;;;;5.55;2.83;;;;;;;15.33;39.71;100587.13;5071156;28;20128;-67
2023/03/30 04:19:34;;;;;;;5.63;3.05;;;;;;;15.32;39.76;100586.28;5071202;28;20048;-67
2023/03/30 04:22:05;;;;;;;5.97;2.70;;;;;;;15.32;39.51;100591.66;5071047;28;20041;-67
2023/03/30 04:24:34;;;;;;;6.00;3.05;;;;;;;15.32;39.86;100591.66;5071089;28;20048;-67
2023/03/30 04:27:08;;;;;;;5.80;3.05;;;;;;;15.30;39.76;100577.47;5071311;28;20055;-67
2023/03/30 04:29:39;;;;;;;6.28;3.20;;;;;;;15.30;39.60;100576.63;5071068;28;20465;-67
2023/03/30 04:32:09;;;;;;;5.95;3.20;;;;;;;15.29;39.64;100586.50;5070868;28;20048;-66
2023/03/30 04:34:37;;;;;;;6.13;2.80;;;;;;;15.29;39.68;100591.88;5071241;28;20051;-67
2023/03/30 04:37:07;;;;;;;5.13;2.72;;;;;;;15.29;40.16;100591.03;5071143;28;20047;-68
2023/03/30 04:39:35;;;;;;;5.15;2.60;;;;;;;15.32;40.29;100588.97;5070834;28;20044;-66
2023/03/30 04:42:05;;;;;;;6.25;2.72;;;;;;;15.36;40.52;100592.31;5072872;28;20045;-66
2023/03/30 04:44:33;;;;;;;5.07;2.65;;;;;;;15.44;40.75;100582.69;5074385;28;20053;-67
2023/03/30 04:47:01;;;;;;;4.93;2.80;;;;;;;15.55;40.81;100583.72;5074435;28;20053;-67
2023/03/30 04:49:29;;;;;;;5.25;3.00;;;;;;;15.65;40.70;100582.06;5074220;28;20040;-68
2023/03/30 04:51:57;;;;;;;5.07;2.78;;;;;;;15.74;40.42;100573.31;5074320;28;20085;-67
2023/03/30 04:54:27;;;;;;;5.97;2.92;;;;;;;15.85;40.28;100570.66;5074198;28;20052;-67
2023/03/30 04:57:01;;;;;;;5.38;2.80;;;;;;;15.94;40.26;100567.25;5074411;28;20432;-67
2023/03/30 04:59:29;;;;;;;4.88;2.88;;;;;;;16.06;40.11;100569.94;5074159;28;20460;-66
2023/03/30 05:01:57;;;;;;;5.03;2.97;;;;;;;16.15;39.94;100566.53;5074225;28;20114;-67
2023/03/30 05:04:26;;;;;;;5.43;2.95;;;;;;;16.24;40.11;100568.50;5074042;28;20405;-67
2023/03/30 05:06:54;;;;;;;4.88;2.75;;;;;;;16.30;40.23;100568.00;5074011;28;20166;-67
2023/03/30 05:09:22;;;;;;;5.30;2.55;;;;;;;16.37;40.12;100573.78;5073940;28;20496;-67
2023/03/30 05:11:52;;;;;;;5.85;2.92;;;;;;;16.40;40.18;100574.38;5073999;28;20074;-68
2023/03/30 05:14:20;;;;;;;5.20;2.85;;;;;;;16.42;40.25;100572.44;5074032;28;20072;-67
2023/03/30 05:16:48;;;;;;;6.47;2.67;;;;;;;16.43;40.32;100579.53;5073902;28;20044;-67
2023/03/30 05:19:16;;;;;;;5.05;2.85;;;;;;;16.45;40.30;100580.28;5073869;28;20173;-67
2023/03/30 05:21:45;;;;;;;5.57;2.70;;;;;;;16.46;40.08;100579.28;5073789;28;20433;-67
2023/03/30 05:24:13;;;;;;;4.85;2.75;;;;;;;16.44;40.04;100573.19;5073837;28;20044;-68
2023/03/30 05:26:42;;;;;;;4.80;2.70;;;;;;;16.45;40.29;100577.56;5075696;28;20098;-67
2023/03/30 05:29:11;;;;;;;7.07;2.95;;;;;;;16.44;40.30;100570.47;5075083;28;20412;-66
2023/03/30 05:31:39;;;;;;;5.70;2.80;;;;;;;16.44;40.03;100573.19;5073784;28;20048;-67
2023/03/30 05:34:08;;;;;;;7.40;3.05;;;;;;;16.43;40.13;100571.47;5073459;28;20036;-67
2023/03/30 05:36:36;;;;;;;5.78;2.75;;;;;;;16.43;40.10;100571.47;5073339;28;20451;-68
2023/03/30 05:39:06;;;;;;;4.18;2.35;;;;;;;16.42;40.12;100575.13;5073184;28;20063;-67
2023/03/30 05:41:34;;;;;;;5.20;2.63;;;;;;;16.42;40.09;100566.22;5079204;28;20044;-68
2023/03/30 05:44:03;;;;;;;5.20;2.67;;;;;;;16.40;40.10;100560.91;5093348;28;20485;-68
2023/03/30 05:46:33;;;;;;;7.47;2.83;;;;;;;16.40;40.45;100557.38;5093727;28;20497;-65
2023/03/30 05:49:01;;;;;;;6.78;3.00;;;;;;;16.39;40.52;100559.22;5093340;28;20055;-68
2023/03/30 05:51:30;;;;;;;8.65;2.88;;;;;;;16.38;40.75;100548.56;5093547;28;20093;-68
2023/03/30 05:53:58;;;;;;;6.40;2.97;;;;;;;16.40;40.82;100555.53;5091120;28;20109;-65
2023/03/30 05:56:26;;;;;;;6.72;3.00;;;;;;;16.40;41.02;100552.84;5092382;28;20048;-65
2023/03/30 05:58:54;;;;;;;7.32;2.92;;;;;;;16.42;41.18;100553.59;5092323;28;20067;-65
2023/03/30 06:01:24;;;;;;;9.30;3.47;;;;;;;16.44;41.26;100554.31;5092875;28;20047;-65
2023/03/30 06:03:54;;;;;;;7.90;3.20;;;;;;;16.46;41.42;100549.66;5092582;28;20048;-68
2023/03/30 06:06:23;;;;;;;8.57;3.53;;;;;;;16.49;41.53;100552.09;5092413;28;20127;-66
2023/03/30 06:08:52;;;;;;;8.05;3.10;;;;;;;16.52;41.72;100557.28;5092335;28;20055;-67
2023/03/30 06:11:20;;;;;;;7.45;3.08;;;;;;;16.55;41.96;100562.41;5092645;28;20218;-65
2023/03/30 06:13:49;;;;;;;9.27;3.33;;;;;;;16.57;41.88;100560.44;5092697;28;20555;-66
2023/03/30 06:16:17;;;;;;;10.82;3.25;;;;;;;16.63;42.26;100560.94;5092601;28;20063;-67
2023/03/30 06:18:45;;;;;;;7.22;2.92;;;;;;;16.65;42.41;100550.88;5092353;28;20399;-66
2023/03/30 06:21:15;;;;;;;8.40;3.30;;;;;;;16.66;42.22;100537.28;5085042;28;20750;-66
2023/03/30 06:23:43;;;;;;;11.65;3.33;;;;;;;16.69;42.25;100547.00;5095104;28;20059;-64
2023/03/30 06:26:12;;;;;;;7.40;3.05;;;;;;;16.70;42.15;100537.97;5092020;28;20054;-65
2023/03/30 06:28:40;;;;;;;9.85;3.20;;;;;;;16.70;42.27;100532.56;5091895;28;20493;-66
2023/03/30 06:31:10;;;;;;;13.38;3.20;;;;;;;16.71;42.36;100539.66;5092147;28;20077;-67
2023/03/30 06:33:38;;;;;;;9.98;3.55;;;;;;;16.71;42.30;100536.97;5093122;28;20101;-67
2023/03/30 06:36:11;;;;;;;7.80;3.15;;;;;;;16.72;42.35;100535.97;5097472;28;20044;-66
2023/03/30 06:38:42;;;;;;;9.35;3.28;;;;;;;16.71;42.33;100527.06;5091628;28;20042;-66
2023/03/30 06:41:11;;;;;;;9.18;3.03;;;;;;;16.72;42.25;100530.59;5090615;28;20044;-65
2023/03/30 06:43:40;;;;;;;10.70;3.67;;;;;;;16.71;42.32;100524.34;5090922;28;20044;-66
2023/03/30 06:46:10;;;;;;;8.23;3.20;;;;;;;16.71;42.26;100524.34;5091840;28;20048;-65
2023/03/30 06:48:38;;;;;;;9.65;3.15;;;;;;;16.72;42.37;100530.59;5091282;28;20043;-65
2023/03/30 06:51:07;;;;;;;12.52;3.10;;;;;;;16.72;42.23;100525.22;5091803;28;20131;-65
2023/03/30 06:53:36;;;;;;;11.05;3.25;;;;;;;16.73;42.25;100527.78;5091683;28;20101;-66
2023/03/30 06:56:06;;;;;;;7.57;2.92;;;;;;;16.72;42.37;100533.28;5091850;28;20040;-65
2023/03/30 06:58:34;;;;;;;6.78;2.70;;;;;;;16.73;42.16;100533.16;5090958;28;20117;-65
2023/03/30 07:01:09;;;;;;;10.52;3.10;;;;;;;16.72;42.43;100526.06;5091646;28;20047;-65
2023/03/30 07:03:37;;;;;;;7.47;2.95;;;;;;;16.74;42.36;100528.63;5091552;28;20050;-64
2023/03/30 07:06:07;;;;;;;10.93;3.08;;;;;;;16.73;42.49;100526.91;5091702;28;20143;-63
2023/03/30 07:08:36;;;;;;;7.22;3.00;;;;;;;16.74;42.60;100525.94;5090897;28;20051;-64
2023/03/30 07:11:06;;;;;;;7.22;3.28;;;;;;;16.75;42.48;100541.97;5091258;28;20060;-65
2023/03/30 07:13:37;;;;;;;7.30;3.17;;;;;;;16.72;42.39;100534.16;5091354;28;20047;-65
2023/03/30 07:16:06;;;;;;;7.20;3.00;;;;;;;16.73;42.49;100526.91;5091241;28;20048;-64
2023/03/30 07:18:35;;;;;;;7.57;2.70;;;;;;;16.75;42.45;100527.66;5091208;28;20048;-64
2023/03/30 07:21:03;;;;;;;6.63;2.92;;;;;;;16.76;42.49;100532.03;5091226;28;20093;-65
2023/03/30 07:23:32;;;;;;;10.80;3.05;;;;;;;16.77;42.40;100528.38;5091312;28;20044;-65
2023/03/30 07:26:01;;;;;;;7.60;3.30;;;;;;;16.76;42.40;100532.03;5091156;28;20048;-65
2023/03/30 07:28:31;;;;;;;9.90;3.58;;;;;;;16.77;42.38;100523.84;5090979;28;20074;-65
2023/03/30 07:31:04;;;;;;;8.13;3.05;;;;;;;16.76;42.32;100519.44;5091220;28;20048;-65
2023/03/30 07:33:35;;;;;;;6.95;2.92;;;;;;;16.78;42.44;100528.25;5091208;28;20044;-65
2023/03/30 07:36:05;;;;;;;6.97;3.30;;;;;;;16.79;42.29;100531.78;5091274;28;20052;-65
2023/03/30 07:38:33;;;;;;;7.88;3.47;;;;;;;16.80;42.38;100536.22;5090630;28;20043;-65
2023/03/30 07:41:07;;;;;;;6.95;2.85;;;;;;;16.80;42.32;100534.38;5091089;28;20086;-66
2023/03/30 07:43:39;;;;;;;6.63;2.90;;;;;;;16.80;42.26;100533.53;5091314;28;20055;-66
2023/03/30 07:46:08;;;;;;;5.85;2.92;;;;;;;16.82;42.29;100528.88;5091273;28;20044;-65
2023/03/30 07:48:36;;;;;;;9.98;3.05;;;;;;;16.81;42.25;100519.06;5090639;28;20040;-65
2023/03/30 07:51:08;;;;;;;6.60;2.70;;;;;;;16.83;42.36;100519.78;5091033;28;20075;-66
2023/03/30 07:53:36;;;;;;;6.75;2.70;;;;;;;16.83;42.26;100528.75;5091027;28;20048;-65
2023/03/30 07:56:05;;;;;;;4.53;2.55;;;;;;;16.82;42.32;100535.09;5091480;28;20131;-66
2023/03/30 07:58:34;;;;;;;6.82;2.65;;;;;;;16.86;42.21;100538.41;5090787;28;20044;-67
2023/03/30 08:01:04;;;;;;;7.10;3.05;;;;;;;16.87;42.26;100532.88;5091257;28;20131;-64
2023/03/30 08:03:32;;;;;;;6.40;2.95;;;;;;;16.87;42.20;100524.78;5090893;28;20405;-65
2023/03/30 08:06:04;;;;;;;7.57;3.10;;;;;;;16.89;42.20;100527.38;5091307;28;20051;-66
2023/03/30 08:08:33;;;;;;;8.02;2.90;;;;;;;16.90;42.29;100520.16;5090509;28;20047;-66
2023/03/30 08:11:01;;;;;;;8.30;3.22;;;;;;;16.90;42.17;100515.63;5090988;28;20412;-64
2023/03/30 08:13:31;;;;;;;9.40;2.70;;;;;;;16.93;42.30;100523.44;5090890;28;20066;-65
2023/03/30 08:16:00;;;;;;;9.07;3.13;;;;;;;16.95;42.25;100523.31;5091099;28;20040;-65
2023/03/30 08:18:30;;;;;;;6.75;2.80;;;;;;;16.95;42.18;100518.78;5094424;28;20119;-65
2023/03/30 08:20:58;;;;;;;5.65;2.72;;;;;;;16.95;42.21;100516.09;5094369;28;20051;-65
2023/03/30 08:23:26;;;;;;;6.30;2.80;;;;;;;16.97;42.21;100513.25;5094538;28;20408;-66
2023/03/30 08:25:57;;;;;;;7.70;3.13;;;;;;;16.98;41.85;100513.13;5094536;28;20051;-65
2023/03/30 08:28:26;;;;;;;6.90;2.72;;;;;;;16.98;42.01;100509.56;5094277;28;20036;-64
2023/03/30 08:30:55;;;;;;;5.53;2.83;;;;;;;16.99;42.11;100512.19;5093729;28;20054;-65
2023/03/30 08:33:23;;;;;;;6.43;2.88;;;;;;;16.98;42.03;100510.44;5093882;28;20481;-65
2023/03/30 08:35:52;;;;;;;7.30;2.92;;;;;;;17.00;42.16;100513.03;5093951;28;20044;-66
2023/03/30 08:38:21;;;;;;;5.68;2.60;;;;;;;17.01;42.13;100514.75;5093326;28;20044;-65
2023/03/30 08:40:53;;;;;;;5.75;2.88;;;;;;;17.01;42.19;100520.13;5093822;28;20044;-64
2023/03/30 08:43:52;;;;;;;5.93;2.80;;;;;;;17.01;42.06;100509.34;5093970;28;20359;-65
2023/03/30 08:46:21;;;;;;;9.48;3.00;;;;;;;17.03;42.12;100516.31;5059923;28;20394;-64
2023/03/30 08:48:53;;;;;;;5.20;2.40;;;;;;;17.01;41.99;100510.19;5093608;28;20048;-64
2023/03/30 08:51:25;;;;;;;5.10;2.63;;;;;;;17.06;42.07;100517.88;5093421;28;20127;-64
2023/03/30 08:53:57;;;;;;;6.10;2.63;;;;;;;17.04;42.05;100509.09;5093983;28;20048;-65
2023/03/30 08:56:29;;;;;;;6.55;3.05;;;;;;;17.06;42.07;100502.56;5093544;28;20048;-65
2023/03/30 08:59:09;;;;;;;5.97;2.63;;;;;;;17.06;41.92;100502.56;5093782;28;20072;-65
2023/03/30 09:01:47;;;;;;;6.15;2.92;;;;;;;17.09;42.11;100502.34;5093835;28;20048;-65
2023/03/30 09:04:24;;;;;;;4.80;2.63;;;;;;;17.09;42.06;100507.72;5094006;28;20048;-63
2023/03/30 09:06:56;;;;;;;6.10;2.80;;;;;;;17.10;42.04;100504.03;5094303;28;20149;-65
2023/03/30 09:09:28;;;;;;;5.32;2.80;;;;;;;17.13;41.96;100489.44;5094283;28;20047;-64
2023/03/30 09:12:05;;;;;;;5.35;2.60;;;;;;;17.13;42.03;100473.28;5093656;28;20393;-64
2023/03/30 09:14:37;;;;;;;6.20;2.70;;;;;;;17.14;42.08;100481.22;5093775;28;20044;-65
2023/03/30 09:17:10;;;;;;;6.55;2.70;;;;;;;17.15;42.03;100484.78;5093692;28;20044;-65
2023/03/30 09:19:49;;;;;;;5.50;2.95;;;;;;;17.17;42.26;100480.97;5093593;28;20071;-65
2023/03/30 09:22:20;;;;;;;9.32;2.92;;;;;;;17.20;41.95;100485.28;5093363;28;20076;-65
2023/03/30 09:24:50;;;;;;;6.20;2.75;;;;;;;17.21;41.99;100484.28;5093531;28;20059;-66
2023/03/30 09:27:28;;;;;;;6.45;2.53;;;;;;;17.22;42.16;100479.75;5093447;28;20075;-65
2023/03/30 09:30:05;;;;;;;5.97;2.58;;;;;;;17.22;41.90;100474.34;5093579;28;20123;-65
2023/03/30 09:32:40;;;;;;;5.05;2.63;;;;;;;17.23;42.04;100476.06;5093137;28;20094;-64
2023/03/30 09:35:14;;;;;;;5.05;2.75;;;;;;;17.22;42.12;100469.81;5093275;28;20044;-65
2023/03/30 09:37:45;;;;;;;5.82;2.60;;;;;;;17.25;42.05;100468.69;5093179;28;20377;-67
2023/03/30 09:40:25;;;;;;;5.32;2.63;;;;;;;17.24;42.04;100456.19;5093115;28;20105;-65
2023/03/30 09:43:01;;;;;;;7.82;2.85;;;;;;;17.28;42.17;100450.44;5093149;28;20058;-65
2023/03/30 09:45:33;;;;;;;4.80;2.67;;;;;;;17.31;42.11;100452.00;5093255;28;20408;-64
2023/03/30 09:48:06;;;;;;;5.10;2.88;;;;;;;17.32;41.93;100440.22;5093071;28;20050;-63
2023/03/30 09:50:39;;;;;;;5.72;2.85;;;;;;;17.36;42.06;100456.00;5093254;28;20101;-64
2023/03/30 09:53:23;;;;;;;4.28;2.70;;;;;;;17.37;41.90;100451.47;5092964;28;20075;-65
2023/03/30 09:55:59;;;;;;;6.22;2.80;;;;;;;17.40;42.16;100451.22;5093266;28;20052;-64
2023/03/30 09:58:29;;;;;;;5.63;3.05;;;;;;;17.45;42.33;100440.88;5092994;28;20048;-64
2023/03/30 10:01:05;;;;;;;5.65;2.80;;;;;;;17.50;42.56;100446.75;5092815;28;20044;-64
2023/03/30 10:03:35;;;;;;;6.07;3.20;;;;;;;17.56;42.61;100440.81;5092516;28;20061;-65
2023/03/30 10:06:07;;;;;;;6.03;3.22;;;;;;;17.59;42.35;100437.00;5093008;28;20130;-65
2023/03/30 10:08:42;;;;;;;4.93;2.80;;;;;;;17.59;42.31;100435.16;5092280;28;20511;-64
2023/03/30 10:11:10;;;;;;;9.73;2.95;;;;;;;17.62;42.37;100429.50;5093073;28;20445;-65
2023/03/30 10:13:42;;;;;;;6.38;3.00;;;;;;;17.64;42.30;100435.59;5092477;28;20448;-64
2023/03/30 10:16:21;;;;;;;13.25;3.10;;;;;;;17.64;42.19;100432.91;5092779;28;20044;-64
2023/03/30 10:18:53;;;;;;;7.05;3.33;;;;;;;17.66;42.08;100433.66;5092517;28;20507;-66
2023/03/30 10:21:25;;;;;;;5.15;2.97;;;;;;;17.66;41.99;100425.56;5092205;28;20519;-64
2023/03/30 10:24:03;;;;;;;5.70;2.92;;;;;;;17.67;42.15;100413.78;5092321;28;20455;-66
2023/03/30 10:26:36;;;;;;;5.32;2.80;;;;;;;17.69;41.98;100417.22;5092465;28;20040;-64
2023/03/30 10:29:09;;;;;;;5.33;3.10;;;;;;;17.70;41.92;100405.44;5092382;28;20113;-65
2023/03/30 10:31:42;;;;;;;5.70;2.75;;;;;;;17.71;42.00;100404.47;5092101;28;20044;-64
2023/03/30 10:34:17;;;;;;;4.38;2.72;;;;;;;17.72;41.96;100395.38;5092122;28;20044;-66
2023/03/30 10:36:47;;;;;;;6.30;2.85;;;;;;;17.72;41.99;100389.97;5092085;28;20048;-64
2023/03/30 10:39:24;;;;;;;6.55;3.00;;;;;;;17.74;42.09;100401.47;5091719;28;20113;-66
2023/03/30 10:41:53;;;;;;;6.10;2.80;;;;;;;17.77;41.87;100394.13;5090326;28;20101;-65
2023/03/30 10:44:25;;;;;;;10.18;3.33;;;;;;;17.76;42.04;100370.81;5091029;28;20048;-64
2023/03/30 10:47:07;;;;;;;5.22;2.70;;;;;;;17.79;41.90;100373.25;5091018;28;20054;-66
2023/03/30 10:49:48;;;;;;;5.88;2.88;;;;;;;17.79;42.02;100370.56;5091006;28;20063;-65
2023/03/30 10:52:23;;;;;;;6.13;2.97;;;;;;;17.81;42.05;100373.97;5091125;28;20052;-65
2023/03/30 10:55:00;;;;;;;5.53;2.83;;;;;;;17.82;41.80;100370.28;5090874;28;20080;-65
2023/03/30 10:57:38;;;;;;;6.57;2.70;;;;;;;17.82;41.99;100359.50;5091760;28;20433;-65
2023/03/30 11:00:20;;;;;;;7.03;2.95;;;;;;;17.84;41.79;100354.81;5091923;28;20075;-65
2023/03/30 11:02:57;;;;;;;6.75;2.97;;;;;;;17.85;41.87;100354.66;5092425;28;20059;-64
2023/03/30 11:05:30;;;;;;;5.05;2.60;;;;;;;17.86;41.77;100353.69;5092111;28;20510;-65
2023/03/30 11:08:03;;;;;;;8.07;3.00;;;;;;;17.87;41.98;100358.09;5092098;28;20044;-66
2023/03/30 11:10:36;;;;;;;4.53;2.92;;;;;;;17.89;41.83;100355.25;5092032;28;20050;-65
2023/03/30 11:13:06;;;;;;;;;;;;;;;17.89;41.95;100350.72;5089201;28;20119;-64
2023/03/30 11:15:40;;;;;;;7.05;3.15;;;;;;;17.91;41.73;100358.69;5088506;28;19920;-64
2023/03/30 11:18:17;;;;;;;7.78;3.20;;;;;;;17.93;41.90;100356.69;5091366;28;20040;-63
2023/03/30 11:20:51;;;;;;;5.93;3.10;;;;;;;17.94;41.93;100353.00;5089891;28;20040;-64
2023/03/30 11:23:26;;;;;;;6.63;2.90;;;;;;;17.95;42.12;100343.91;5085341;28;20619;-65
2023/03/30 11:26:02;;;;;;;5.43;2.83;;;;;;;17.97;42.12;100350.03;5091308;28;20523;-64
2023/03/30 11:28:53;;;;;;;7.00;3.20;;;;;;;17.98;42.46;100349.03;5091321;28;20052;-65
2023/03/30 11:31:32;;;;;;;6.68;2.60;;;;;;;17.99;42.57;100345.34;5091128;28;20485;-64
2023/03/30 11:34:07;;;;;;;6.95;2.97;;;;;;;17.98;42.39;100343.66;5077959;28;20040;-64
2023/03/30 11:36:45;;;;;;;5.75;2.63;;;;;;;17.99;42.72;100339.97;5089771;28;20080;-65
2023/03/30 11:39:16;;;;;;;6.30;3.03;;;;;;;18.00;42.58;100336.25;5090774;28;20090;-65
2023/03/30 11:42:11;;;;;;;5.70;2.70;;;;;;;17.97;42.73;100326.59;5085160;28;20071;-64
2023/03/30 11:44:41;;;;;;;7.13;2.88;;;;;;;18.02;42.62;100326.19;5080009;28;20052;-64
2023/03/30 11:47:29;;;;;;;5.82;2.83;;;;;;;18.03;42.69;100325.19;5084410;28;20607;-64